Time;durP1;ratioP1;P1;durP2;ratioP2;P2;SDS_P1;SDS_P2;PMS_P1;PMS_P2;Temp;Humidity;BMP_temperature;BMP_pressure;BME280_temperature;BME280_humidity;BME280_pressure;Samples;Min_cycle;Max_cycle;Signal;HPM_P1;HPM_P2
2022/10/14 00:00:33;;;;;;;63.55;40.10;;;;;;;13.22;100.00;99909.34;5072245;28;20396;-76
2022/10/14 00:02:59;;;;;;;63.00;40.80;;;;;;;13.13;100.00;99910.28;5072868;28;20033;-75
2022/10/14 00:05:24;;;;;;;64.65;39.35;;;;;;;13.08;100.00;99917.78;5072904;28;20036;-76
2022/10/14 00:07:50;;;;;;;65.88;38.95;;;;;;;13.07;100.00;99916.97;5071385;28;20430;-74
2022/10/14 00:10:15;;;;;;;63.10;38.88;;;;;;;13.09;100.00;99908.84;5072522;28;20043;-74
2022/10/14 00:12:41;;;;;;;61.17;39.60;;;;;;;13.11;100.00;99912.19;5075450;28;20025;-74
2022/10/14 00:15:07;;;;;;;65.28;39.90;;;;;;;13.11;100.00;99906.91;5072355;28;20034;-73
2022/10/14 00:17:33;;;;;;;60.13;37.97;;;;;;;13.15;100.00;99908.28;5072342;28;20111;-75
2022/10/14 00:19:59;;;;;;;56.10;36.13;;;;;;;13.16;100.00;99915.25;5072418;28;20377;-74
2022/10/14 00:22:25;;;;;;;61.33;37.75;;;;;;;13.19;100.00;99917.63;5072461;28;20461;-74
2022/10/14 00:24:50;;;;;;;58.95;36.75;;;;;;;13.21;100.00;99917.44;5071989;28;20115;-74
2022/10/14 00:27:16;;;;;;;59.30;35.63;;;;;;;13.23;100.00;99918.97;5072279;28;20032;-74
2022/10/14 00:29:42;;;;;;;56.58;34.80;;;;;;;13.05;100.00;99908.34;5070383;28;20060;-74
2022/10/14 00:32:07;;;;;;;59.35;36.10;;;;;;;12.87;100.00;99915.41;5074291;28;20055;-74
2022/10/14 00:34:33;;;;;;;56.15;36.30;;;;;;;12.73;100.00;99907.97;5071958;28;20040;-74
2022/10/14 00:36:58;;;;;;;55.25;37.22;;;;;;;12.62;100.00;99922.25;5072343;28;20488;-74
2022/10/14 00:39:24;;;;;;;60.97;38.17;;;;;;;12.70;100.00;99919.69;5072145;28;20036;-75
2022/10/14 00:41:50;;;;;;;58.00;36.17;;;;;;;12.81;100.00;99917.81;5071632;28;20855;-75
2022/10/14 00:44:18;;;;;;;54.42;34.63;;;;;;;12.83;100.00;99921.16;5071718;28;20162;-75
2022/10/14 00:46:46;;;;;;;59.13;36.47;;;;;;;12.78;100.00;99918.97;5070445;28;20029;-74
2022/10/14 00:49:17;;;;;;;54.75;34.53;;;;;;;12.85;100.00;99916.53;5072820;28;20043;-75
2022/10/14 00:51:47;;;;;;;63.70;39.47;;;;;;;12.85;100.00;99911.25;5069898;28;20033;-75
2022/10/14 00:54:15;;;;;;;61.22;38.28;;;;;;;12.81;100.00;99916.00;5068504;28;20032;-74
2022/10/14 00:56:43;;;;;;;60.67;39.08;;;;;;;12.79;100.00;99915.31;5069796;28;20455;-74
2022/10/14 00:59:09;;;;;;;61.38;37.65;;;;;;;12.84;100.00;99914.91;5066876;28;20052;-74
2022/10/14 01:01:35;;;;;;;56.35;36.85;;;;;;;12.89;100.00;99912.63;5070040;28;20121;-74
2022/10/14 01:04:00;;;;;;;60.47;38.00;;;;;;;12.95;100.00;99901.44;5071755;28;20046;-75
2022/10/14 01:06:40;;;;;;;70.10;36.92;;;;;;;13.02;100.00;99892.72;5071734;28;20036;-75
2022/10/14 01:09:15;;;;;;;68.22;40.65;;;;;;;13.09;100.00;99895.59;5074348;28;20068;-76
2022/10/14 01:12:02;;;;;;;60.15;38.55;;;;;;;13.18;100.00;99886.81;5067092;28;20427;-74
2022/10/14 01:14:51;;;;;;;;;;;;;;;13.20;100.00;99882.16;5078076;28;20507;-74
2022/10/14 01:17:42;;;;;;;67.25;40.05;;;;;;;13.23;100.00;99884.53;5066594;28;19959;-75
2022/10/14 01:20:45;;;;;;;64.45;40.05;;;;;;;13.17;100.00;99895.72;5071349;28;20052;-74
2022/10/14 01:23:22;;;;;;;65.30;39.78;;;;;;;13.15;100.00;99892.38;5068036;28;20046;-75
2022/10/14 01:26:21;;;;;;;65.45;39.75;;;;;;;12.99;100.00;99892.19;5068067;28;20439;-75
2022/10/14 01:29:16;;;;;;;72.70;39.53;;;;;;;13.01;100.00;99890.25;5078999;28;20121;-75
2022/10/14 01:31:46;;;;;;;69.15;40.83;;;;;;;12.91;100.00;99884.16;5052436;28;20127;-75
2022/10/14 01:34:18;;;;;;;64.25;38.88;;;;;;;12.94;100.00;99883.88;5069134;28;20484;-75
2022/10/14 01:36:53;;;;;;;62.90;40.28;;;;;;;12.95;100.00;99891.69;5067231;28;20025;-75
2022/10/14 01:39:32;;;;;;;70.93;42.17;;;;;;;12.92;100.00;99886.66;5066939;28;20365;-74
2022/10/14 01:42:06;;;;;;;72.95;42.17;;;;;;;12.90;100.00;99880.66;5069498;28;20060;-74
2022/10/14 01:44:36;;;;;;;69.10;42.22;;;;;;;12.88;100.00;99884.47;5068928;28;20059;-74
2022/10/14 01:47:09;;;;;;;67.20;42.47;;;;;;;12.82;100.00;99877.97;5071470;28;20032;-75
2022/10/14 01:49:40;;;;;;;74.55;44.13;;;;;;;12.68;100.00;99874.00;5065092;28;20032;-75
2022/10/14 01:52:15;;;;;;;;;;;;;;;12.76;100.00;99875.06;5071295;28;20045;-76
2022/10/14 01:54:43;;;;;;;71.68;43.03;;;;;;;12.82;100.00;99869.19;5066411;28;19921;-74
2022/10/14 01:57:15;;;;;;;66.68;40.72;;;;;;;12.82;100.00;99869.19;5070864;28;20036;-74
2022/10/14 01:59:43;;;;;;;60.28;39.30;;;;;;;12.83;100.00;99871.69;5064523;28;20028;-74
2022/10/14 02:02:11;;;;;;;60.28;39.38;;;;;;;12.89;100.00;99876.38;5065384;28;20094;-74
2022/10/14 02:04:39;;;;;;;53.40;35.78;;;;;;;12.90;100.00;99871.94;5068940;28;20035;-75
2022/10/14 02:07:18;;;;;;;56.03;36.42;;;;;;;12.78;100.00;99865.16;5075074;28;20032;-75
2022/10/14 02:09:55;;;;;;;58.05;37.63;;;;;;;12.77;100.00;99860.84;5067432;28;20028;-74
2022/10/14 02:12:38;;;;;;;55.30;36.65;;;;;;;12.78;100.00;99859.88;5070741;28;20039;-75
2022/10/14 02:15:38;;;;;;;54.13;35.55;;;;;;;12.82;100.00;99869.19;5068775;28;20029;-75
2022/10/14 02:18:17;;;;;;;53.17;35.78;;;;;;;12.84;100.00;99869.88;5068447;28;20032;-75
2022/10/14 02:20:56;;;;;;;65.50;36.95;;;;;;;12.84;100.00;99865.38;5066394;28;20070;-74
2022/10/14 02:23:26;;;;;;;57.67;35.35;;;;;;;12.89;100.00;99857.00;5068016;28;20468;-74
2022/10/14 02:25:55;;;;;;;56.33;34.58;;;;;;;12.93;100.00;99858.38;5073458;28;20111;-74
2022/10/14 02:28:26;;;;;;;65.93;37.53;;;;;;;12.92;100.00;99859.34;5071029;28;20097;-74
2022/10/14 02:30:57;;;;;;;55.80;35.17;;;;;;;12.93;100.00;99861.84;5068347;28;20396;-74
2022/10/14 02:33:27;;;;;;;60.75;35.95;;;;;;;13.00;100.00;99862.09;5068179;28;20044;-75
2022/10/14 02:35:55;;;;;;;55.85;35.25;;;;;;;12.89;100.00;99864.97;5072780;28;20139;-74
2022/10/14 02:38:21;;;;;;;55.78;35.13;;;;;;;12.86;100.00;99857.28;5073336;28;20044;-74
2022/10/14 02:40:49;;;;;;;54.08;33.65;;;;;;;12.93;100.00;99861.00;5052055;28;20126;-74
2022/10/14 02:43:15;;;;;;;56.17;35.47;;;;;;;12.94;100.00;99862.69;5078593;28;20752;-74
2022/10/14 02:45:43;;;;;;;53.08;33.30;;;;;;;12.95;100.00;99864.34;5073632;28;20020;-74
2022/10/14 02:48:10;;;;;;;48.55;33.17;;;;;;;12.87;100.00;99862.44;5068730;28;20101;-74
2022/10/14 02:50:36;;;;;;;53.47;33.17;;;;;;;12.85;100.00;99860.91;5073885;28;20040;-74
2022/10/14 02:53:02;;;;;;;53.20;32.30;;;;;;;12.81;100.00;99864.84;5072739;28;20056;-74
2022/10/14 02:55:28;;;;;;;53.78;33.17;;;;;;;12.82;100.00;99858.59;5072933;28;20146;-74
2022/10/14 02:57:53;;;;;;;45.75;32.42;;;;;;;12.87;100.00;99861.63;5068294;28;20170;-75
2022/10/14 03:00:19;;;;;;;51.22;32.80;;;;;;;12.86;100.00;99866.06;5072318;28;20024;-75
2022/10/14 03:02:45;;;;;;;55.08;31.05;;;;;;;12.91;100.00;99855.03;5077668;28;20112;-76
2022/10/14 03:05:12;;;;;;;54.15;34.22;;;;;;;12.92;100.00;99852.22;5072494;28;20036;-74
2022/10/14 03:07:38;;;;;;;54.03;34.03;;;;;;;12.92;100.00;99864.63;5068739;28;20224;-75
2022/10/14 03:10:07;;;;;;;59.03;33.53;;;;;;;12.93;100.00;99855.72;5070985;28;20029;-74
2022/10/14 03:12:35;;;;;;;50.42;32.38;;;;;;;12.95;100.00;99853.75;5073606;28;20151;-75
2022/10/14 03:15:00;;;;;;;54.00;35.13;;;;;;;12.85;100.00;99847.69;5072200;28;20451;-74
2022/10/14 03:17:26;;;;;;;55.83;34.53;;;;;;;12.94;100.00;99844.16;5072227;28;20090;-75
2022/10/14 03:19:55;;;;;;;53.28;34.60;;;;;;;12.98;100.00;99853.44;5072171;28;20024;-74
2022/10/14 03:22:20;;;;;;;51.85;33.45;;;;;;;13.00;100.00;99856.78;5076426;28;20032;-75
2022/10/14 03:24:45;;;;;;;54.80;33.80;;;;;;;12.95;100.00;99848.47;5055392;28;20323;-75
2022/10/14 03:27:31;;;;;;;54.58;35.35;;;;;;;12.86;100.00;99844.06;5068457;28;20051;-74
2022/10/14 03:30:02;;;;;;;59.65;35.80;;;;;;;12.92;100.00;99848.75;5072024;28;20023;-73
2022/10/14 03:32:28;;;;;;;56.67;35.20;;;;;;;12.94;100.00;99852.09;5071857;28;20061;-74
2022/10/14 03:35:14;;;;;;;57.40;35.53;;;;;;;12.92;100.00;99840.81;5069124;28;20408;-73
2022/10/14 03:37:42;;;;;;;54.60;35.38;;;;;;;12.97;100.00;99841.19;5067996;28;20074;-74
2022/10/14 03:40:09;;;;;;;54.13;35.15;;;;;;;12.98;100.00;99853.44;5075031;28;20102;-73
2022/10/14 03:42:35;;;;;;;47.63;34.05;;;;;;;12.95;100.00;99854.59;5071334;28;20035;-74
2022/10/14 03:45:00;;;;;;;51.67;34.25;;;;;;;12.90;100.00;99851.53;5072638;28;20033;-75
2022/10/14 03:47:27;;;;;;;50.20;33.10;;;;;;;12.87;100.00;99853.66;5071822;28;20028;-74
2022/10/14 03:49:53;;;;;;;64.15;36.22;;;;;;;12.90;100.00;99851.53;5071156;28;20032;-75
2022/10/14 03:52:27;;;;;;;51.45;34.40;;;;;;;12.82;100.00;99858.59;5071752;28;20039;-74
2022/10/14 03:55:02;;;;;;;57.13;35.60;;;;;;;12.76;100.00;99853.88;5067145;28;20036;-74
2022/10/14 03:57:28;;;;;;;57.20;35.80;;;;;;;12.68;100.00;99852.81;5071717;28;20064;-74
2022/10/14 03:59:56;;;;;;;53.08;35.33;;;;;;;12.65;100.00;99853.13;5071710;28;20074;-75
2022/10/14 04:02:27;;;;;;;60.63;36.78;;;;;;;12.64;100.00;99850.63;5071761;28;20040;-76
2022/10/14 04:04:55;;;;;;;56.97;34.45;;;;;;;12.61;100.00;99853.53;5068513;28;20024;-75
2022/10/14 04:07:21;;;;;;;57.90;34.42;;;;;;;12.60;100.00;99852.75;5071290;28;20499;-75
2022/10/14 04:09:53;;;;;;;55.33;33.58;;;;;;;12.59;100.00;99853.72;5071041;28;20032;-75
2022/10/14 04:12:18;;;;;;;53.50;35.13;;;;;;;12.64;100.00;99854.09;5071372;28;20032;-76
2022/10/14 04:14:56;;;;;;;53.30;34.17;;;;;;;12.72;100.00;99853.38;5066881;28;20035;-75
2022/10/14 04:17:25;;;;;;;53.90;35.28;;;;;;;12.79;100.00;99853.56;5071416;28;20032;-75
2022/10/14 04:19:52;;;;;;;49.13;32.97;;;;;;;12.81;100.00;99857.75;5074831;28;20127;-75
2022/10/14 04:22:18;;;;;;;58.47;36.03;;;;;;;12.84;100.00;99856.63;5072373;28;20032;-75
2022/10/14 04:24:48;;;;;;;57.90;36.08;;;;;;;12.80;100.00;99855.25;5067267;28;20025;-75
2022/10/14 04:27:14;;;;;;;55.33;34.80;;;;;;;12.78;100.00;99862.53;5072120;28;20055;-75
2022/10/14 04:29:46;;;;;;;54.80;34.97;;;;;;;12.73;100.00;99865.59;5068191;28;20021;-76
2022/10/14 04:32:18;;;;;;;57.33;34.60;;;;;;;12.67;100.00;99861.72;5068237;28;20039;-75
2022/10/14 04:34:44;;;;;;;55.33;34.88;;;;;;;12.63;100.00;99854.25;5070261;28;20361;-74
2022/10/14 04:37:13;;;;;;;56.42;35.95;;;;;;;12.61;100.00;99857.03;5070228;28;20038;-75
2022/10/14 04:39:45;;;;;;;54.17;34.60;;;;;;;12.65;100.00;99861.06;5069201;28;20078;-74
2022/10/14 04:42:11;;;;;;;57.45;34.75;;;;;;;12.67;100.00;99860.91;5071626;28;20040;-75
2022/10/14 04:44:37;;;;;;;55.75;35.25;;;;;;;12.70;100.00;99860.63;5069697;28;20059;-76
2022/10/14 04:47:04;;;;;;;62.22;35.47;;;;;;;12.70;100.00;99860.63;5070187;28;20037;-75
2022/10/14 04:49:31;;;;;;;53.20;33.53;;;;;;;12.72;100.00;99854.16;5069938;28;20043;-75
2022/10/14 04:52:06;;;;;;;53.03;34.03;;;;;;;12.75;100.00;99857.50;5070036;28;20033;-75
2022/10/14 04:54:44;;;;;;;48.40;32.63;;;;;;;12.70;100.00;99861.44;5050337;28;20384;-75
2022/10/14 04:57:10;;;;;;;50.92;33.25;;;;;;;12.75;100.00;99857.50;5073298;28;20036;-76
2022/10/14 04:59:37;;;;;;;56.33;33.50;;;;;;;12.79;100.00;99853.56;5069523;28;20041;-75
2022/10/14 05:02:13;;;;;;;50.83;31.42;;;;;;;12.78;100.00;99846.63;5066331;28;20037;-75
2022/10/14 05:04:49;;;;;;;53.80;33.17;;;;;;;12.75;100.00;99841.63;5067923;28;20467;-74
2022/10/14 05:07:15;;;;;;;55.95;34.60;;;;;;;12.70;100.00;99828.84;5066170;28;20067;-75
2022/10/14 05:09:41;;;;;;;55.83;33.92;;;;;;;12.72;100.00;99822.41;5069480;28;20129;-76
2022/10/14 05:12:19;;;;;;;53.70;36.28;;;;;;;12.69;100.00;99827.16;5070187;28;20028;-75
2022/10/14 05:14:49;;;;;;;54.00;34.45;;;;;;;12.61;100.00;99824.41;5070512;28;20029;-76
2022/10/14 05:17:32;;;;;;;57.97;36.40;;;;;;;12.62;100.00;99826.94;5070194;28;20032;-76
2022/10/14 05:19:57;;;;;;;56.65;37.35;;;;;;;12.63;100.00;99823.31;5070113;28;20032;-79
2022/10/14 05:22:26;;;;;;;60.00;39.75;;;;;;;12.64;100.00;99819.69;5067311;28;20492;-79
2022/10/14 05:24:52;;;;;;;59.40;38.42;;;;;;;12.66;100.00;99827.47;5064942;28;20041;-76
2022/10/14 05:27:17;;;;;;;60.58;37.75;;;;;;;12.70;100.00;99832.31;5069461;28;20032;-76
2022/10/14 05:29:44;;;;;;;60.65;38.17;;;;;;;12.72;100.00;99827.69;5068158;28;20474;-73
2022/10/14 05:32:10;;;;;;;57.70;37.25;;;;;;;12.72;100.00;99832.97;5070019;28;20112;-76
2022/10/14 05:34:46;;;;;;;64.97;38.90;;;;;;;12.76;100.00;99822.09;5067084;28;20025;-75
2022/10/14 05:37:21;;;;;;;61.53;40.35;;;;;;;12.76;100.00;99819.47;5066543;28;20048;-76
2022/10/14 05:39:49;;;;;;;62.22;38.38;;;;;;;12.79;100.00;99829.75;5051966;28;20032;-79
2022/10/14 05:42:18;;;;;;;69.32;40.75;;;;;;;12.79;100.00;99832.38;5068848;28;20472;-80
2022/10/14 05:44:44;;;;;;;63.00;39.90;;;;;;;12.76;100.00;99838.84;5066671;28;20024;-79
2022/10/14 05:47:11;;;;;;;62.30;38.10;;;;;;;12.73;100.00;99845.25;5063595;28;20067;-79
2022/10/14 05:49:49;;;;;;;66.05;40.55;;;;;;;12.75;100.00;99836.31;5067902;28;20138;-79
2022/10/14 05:52:17;;;;;;;64.20;40.40;;;;;;;12.75;100.00;99836.31;5064021;28;20029;-79
2022/10/14 05:54:43;;;;;;;60.58;38.38;;;;;;;12.78;100.00;99841.34;5067615;28;20773;-78
2022/10/14 05:57:11;;;;;;;62.88;38.03;;;;;;;12.73;100.00;99834.66;5067583;28;20144;-78
2022/10/14 05:59:37;;;;;;;54.63;35.35;;;;;;;12.68;100.00;99842.22;5068532;28;20025;-78
2022/10/14 06:02:03;;;;;;;56.25;35.80;;;;;;;12.68;100.00;99844.88;5070429;28;20028;-77
2022/10/14 06:04:28;;;;;;;49.42;34.45;;;;;;;12.64;100.00;99846.16;5048204;28;20105;-75
2022/10/14 06:06:54;;;;;;;57.72;34.90;;;;;;;12.57;100.00;99845.06;5068214;28;20028;-77
2022/10/14 06:09:20;;;;;;;54.33;34.85;;;;;;;12.58;100.00;99851.22;5068156;28;20467;-77
2022/10/14 06:11:46;;;;;;;54.55;34.83;;;;;;;12.52;100.00;99857.09;5069006;28;20090;-77
2022/10/14 06:14:11;;;;;;;56.45;34.75;;;;;;;12.49;100.00;99857.38;5072602;28;20074;-77
2022/10/14 06:16:37;;;;;;;49.97;32.45;;;;;;;12.51;100.00;99856.25;5067807;28;20037;-77
2022/10/14 06:19:06;;;;;;;51.47;32.67;;;;;;;12.48;100.00;99856.56;5052166;28;20040;-77
2022/10/14 06:21:31;;;;;;;53.97;34.95;;;;;;;12.54;100.00;99858.63;5069535;28;20472;-79
2022/10/14 06:23:56;;;;;;;50.30;32.88;;;;;;;12.60;100.00;99850.09;5068236;28;20044;-77
2022/10/14 06:26:22;;;;;;;53.40;34.22;;;;;;;12.70;100.00;99850.84;5069543;28;20067;-79
2022/10/14 06:28:47;;;;;;;58.00;35.50;;;;;;;12.78;100.00;99851.94;5069152;28;20396;-77
2022/10/14 06:31:13;;;;;;;59.47;36.55;;;;;;;12.86;100.00;99852.00;5072933;28;20040;-78
2022/10/14 06:33:38;;;;;;;58.83;37.60;;;;;;;12.96;100.00;99855.44;5070036;28;20110;-77
2022/10/14 06:36:05;;;;;;;59.03;37.35;;;;;;;13.04;100.00;99858.13;5069602;28;20039;-77
2022/10/14 06:38:32;;;;;;;57.90;36.90;;;;;;;13.08;100.00;99859.50;5069573;28;20098;-77
2022/10/14 06:40:57;;;;;;;52.72;35.33;;;;;;;13.19;100.00;99851.38;5068986;28;20457;-78
2022/10/14 06:43:23;;;;;;;61.60;37.90;;;;;;;13.18;100.00;99862.94;5069389;28;20037;-78
2022/10/14 06:45:49;;;;;;;55.15;36.80;;;;;;;13.18;100.00;99860.31;5069027;28;20036;-78
2022/10/14 06:48:14;;;;;;;55.17;36.55;;;;;;;13.24;100.00;99862.34;5068485;28;20035;-79
2022/10/14 06:50:40;;;;;;;55.60;35.67;;;;;;;13.25;100.00;99856.06;5066308;28;20081;-78
2022/10/14 06:53:06;;;;;;;50.88;34.33;;;;;;;13.29;100.00;99857.41;5069399;28;20041;-78
2022/10/14 06:55:32;;;;;;;60.53;36.20;;;;;;;13.35;100.00;99861.28;5069254;28;20028;-77
2022/10/14 06:57:57;;;;;;;60.50;35.58;;;;;;;13.40;100.00;99862.47;5069152;28;20323;-78
2022/10/14 07:00:23;;;;;;;52.97;35.50;;;;;;;13.37;100.00;99860.13;5069123;28;20161;-78
2022/10/14 07:02:48;;;;;;;59.38;35.95;;;;;;;13.32;100.00;99862.41;5068941;28;20033;-77
2022/10/14 07:05:14;;;;;;;56.97;37.15;;;;;;;13.38;100.00;99851.19;5069605;28;20039;-78
2022/10/14 07:07:39;;;;;;;65.85;36.97;;;;;;;13.42;100.00;99857.88;5068897;28;20128;-77
2022/10/14 07:10:05;;;;;;;55.20;34.88;;;;;;;13.46;100.00;99859.22;5071874;28;20044;-79
2022/10/14 07:12:31;;;;;;;61.80;37.30;;;;;;;13.51;100.00;99862.22;5069250;28;20488;-79
2022/10/14 07:14:57;;;;;;;57.15;37.78;;;;;;;13.57;100.00;99873.22;5069004;28;20024;-78
2022/10/14 07:17:23;;;;;;;61.78;37.05;;;;;;;13.57;100.00;99873.22;5070420;28;20037;-79
2022/10/14 07:19:48;;;;;;;59.20;36.85;;;;;;;13.48;100.00;99886.41;5072765;28;20149;-78
2022/10/14 07:22:15;;;;;;;63.85;37.53;;;;;;;13.53;100.00;99886.78;5072981;28;20040;-78
2022/10/14 07:24:40;;;;;;;56.60;36.47;;;;;;;13.57;100.00;99891.75;5072610;28;20036;-78
2022/10/14 07:27:08;;;;;;;60.53;38.55;;;;;;;13.46;100.00;99896.34;5072958;28;20040;-78
2022/10/14 07:29:33;;;;;;;63.70;38.72;;;;;;;13.51;100.00;99890.56;5076552;28;20507;-78
2022/10/14 07:31:59;;;;;;;68.82;40.83;;;;;;;13.51;100.00;99891.41;5072165;28;20037;-78
2022/10/14 07:34:24;;;;;;;77.82;42.45;;;;;;;13.56;100.00;99890.09;5072880;28;20036;-78
2022/10/14 07:36:50;;;;;;;70.88;42.28;;;;;;;13.64;100.00;99887.53;5072533;28;20081;-79
2022/10/14 07:39:15;;;;;;;69.75;41.22;;;;;;;13.76;100.00;99892.44;5072818;28;20037;-79
2022/10/14 07:41:40;;;;;;;67.35;39.38;;;;;;;13.90;100.00;99883.09;5072038;28;20085;-78
2022/10/14 07:44:08;;;;;;;68.93;40.92;;;;;;;13.98;100.00;99888.41;5072661;28;20476;-77
2022/10/14 07:46:37;;;;;;;62.05;39.40;;;;;;;13.97;100.00;99884.09;5071772;28;20029;-77
2022/10/14 07:49:13;;;;;;;71.93;42.45;;;;;;;14.07;100.00;99890.16;5075152;28;20111;-78
2022/10/14 07:51:39;;;;;;;68.10;43.53;;;;;;;14.15;100.00;99892.00;5071994;28;20032;-77
2022/10/14 07:54:10;;;;;;;67.05;42.75;;;;;;;14.18;100.00;99897.84;5072387;28;20173;-77
2022/10/14 07:56:38;;;;;;;69.63;42.28;;;;;;;14.14;100.00;99901.78;5072100;28;20029;-78
2022/10/14 07:59:04;;;;;;;66.88;42.83;;;;;;;14.06;100.00;99892.94;5072402;28;20036;-79
2022/10/14 08:01:29;;;;;;;66.85;41.60;;;;;;;14.03;100.00;99894.09;5071440;28;20025;-77
2022/10/14 08:03:55;;;;;;;67.03;42.40;;;;;;;14.05;100.00;99897.44;5071855;28;20115;-79
2022/10/14 08:06:20;;;;;;;68.45;42.17;;;;;;;14.11;100.00;99891.50;5072198;28;20139;-78
2022/10/14 08:08:47;;;;;;;67.57;41.67;;;;;;;14.20;100.00;99893.19;5075719;28;20476;-78
2022/10/14 08:11:20;;;;;;;69.20;43.70;;;;;;;14.29;100.00;99897.56;5068044;28;20080;-78
2022/10/14 08:13:47;;;;;;;69.07;41.70;;;;;;;14.38;100.00;99901.09;5069478;28;20020;-78
2022/10/14 08:16:25;;;;;;;71.10;43.20;;;;;;;14.47;100.00;99902.00;5067567;28;20553;-77
2022/10/14 08:18:52;;;;;;;63.45;41.75;;;;;;;14.53;100.00;99909.31;5070302;28;20551;-78
2022/10/14 08:21:19;;;;;;;75.25;43.33;;;;;;;14.57;100.00;99905.34;5070396;28;20044;-78
2022/10/14 08:23:45;;;;;;;66.78;41.10;;;;;;;14.68;100.00;99905.88;5071477;28;20041;-78
2022/10/14 08:26:31;;;;;;;65.22;41.63;;;;;;;14.70;100.00;99897.78;5075560;28;20038;-78
2022/10/14 08:29:00;;;;;;;67.63;43.20;;;;;;;14.82;100.00;99907.09;5068874;28;20464;-77
2022/10/14 08:31:26;;;;;;;64.65;40.72;;;;;;;14.89;100.00;99908.13;5071229;28;20625;-78
2022/10/14 08:33:51;;;;;;;62.30;41.05;;;;;;;14.98;100.00;99907.16;5070969;28;20104;-78
2022/10/14 08:36:18;;;;;;;66.05;42.55;;;;;;;15.07;100.00;99910.66;5071773;28;20032;-79
2022/10/14 08:38:44;;;;;;;63.60;40.58;;;;;;;15.15;100.00;99914.16;5067486;28;20112;-79
2022/10/14 08:41:13;;;;;;;73.13;44.47;;;;;;;15.23;100.00;99910.69;5071443;28;20041;-79
2022/10/14 08:44:17;;;;;;;70.43;45.33;;;;;;;15.31;100.00;99917.84;5071163;28;20161;-79
2022/10/14 08:46:46;;;;;;;67.30;44.10;;;;;;;15.40;100.00;99916.84;5071141;28;20128;-79
2022/10/14 08:49:26;;;;;;;71.50;44.78;;;;;;;15.49;100.00;99915.88;5071424;28;20036;-79
2022/10/14 08:52:02;;;;;;;73.70;46.40;;;;;;;15.57;100.00;99921.22;5068080;28;20488;-77
2022/10/14 08:54:36;;;;;;;69.93;44.80;;;;;;;15.66;100.00;99917.59;5071229;28;20044;-78
2022/10/14 08:57:04;;;;;;;69.60;44.30;;;;;;;15.79;100.00;99917.06;5071241;28;20024;-78
2022/10/14 08:59:36;;;;;;;70.50;46.17;;;;;;;15.88;100.00;99916.91;5070981;28;20481;-79
2022/10/14 09:02:18;;;;;;;74.53;45.90;;;;;;;15.97;100.00;99921.19;5069616;28;20177;-79
2022/10/14 09:04:44;;;;;;;80.45;45.47;;;;;;;16.08;100.00;99927.19;5070950;28;20101;-78
2022/10/14 09:07:16;;;;;;;73.07;46.17;;;;;;;16.18;100.00;99927.84;5071035;28;20111;-78
2022/10/14 09:09:47;;;;;;;69.57;45.03;;;;;;;16.22;100.00;99929.16;5070263;28;20120;-79
2022/10/14 09:12:16;;;;;;;74.15;45.80;;;;;;;16.29;100.00;99924.81;5067447;28;20120;-78
2022/10/14 09:14:46;;;;;;;66.00;43.53;;;;;;;16.34;100.00;99928.63;5071160;28;20074;-79
2022/10/14 09:17:22;;;;;;;66.75;43.45;;;;;;;16.46;100.00;99923.75;5070396;28;20032;-80
2022/10/14 09:20:01;;;;;;;65.78;41.90;;;;;;;16.62;100.00;99923.72;5068152;28;20139;-77
2022/10/14 09:22:27;;;;;;;73.10;45.03;;;;;;;16.68;100.00;99919.53;5067148;28;20468;-78
2022/10/14 09:24:52;;;;;;;68.38;43.63;;;;;;;16.82;100.00;99920.66;5056687;28;20040;-78
2022/10/14 09:27:20;;;;;;;65.55;41.90;;;;;;;16.94;100.00;99913.94;5069600;28;20035;-78
2022/10/14 09:29:49;;;;;;;67.95;43.45;;;;;;;17.10;100.00;99909.34;5068032;28;20056;-79
2022/10/14 09:32:22;;;;;;;70.65;42.67;;;;;;;17.25;100.00;99906.75;5069025;28;20048;-78
2022/10/14 09:34:49;;;;;;;65.28;43.40;;;;;;;17.34;100.00;99911.00;5067727;28;20105;-77
2022/10/14 09:37:51;;;;;;;68.32;44.05;;;;;;;17.37;100.00;99916.00;5069544;28;20028;-79
2022/10/14 09:40:41;;;;;;;63.47;42.35;;;;;;;17.42;100.00;99910.97;5044709;28;20033;-79
2022/10/14 09:43:06;;;;;;;;;;;;;;;17.48;100.00;99915.59;5044277;28;20512;-77
2022/10/14 09:46:09;;;;;;;71.28;43.63;;;;;;;17.55;100.00;99919.19;5029626;28;19917;-79
2022/10/14 09:48:46;;;;;;;66.88;43.42;;;;;;;17.68;100.00;99909.78;5046490;28;20037;-78
2022/10/14 09:51:27;;;;;;;74.00;44.13;;;;;;;17.67;100.00;99910.81;5046005;28;20049;-77
2022/10/14 09:53:56;;;;;;;63.90;43.38;;;;;;;17.72;100.00;99913.75;5046807;28;20032;-78
2022/10/14 09:56:30;;;;;;;70.35;44.33;;;;;;;17.69;100.00;99908.78;5043732;28;20040;-78
2022/10/14 09:58:57;;;;;;;69.35;43.53;;;;;;;17.74;100.00;99906.38;5048279;28;20041;-75
2022/10/14 10:01:24;;;;;;;72.38;43.95;;;;;;;17.75;100.00;99914.22;5051138;28;20049;-79
2022/10/14 10:03:51;;;;;;;68.45;43.60;;;;;;;17.80;100.00;99908.34;5048087;28;20420;-77
2022/10/14 10:06:20;;;;;;;74.38;42.55;;;;;;;17.92;100.00;99910.41;5047126;28;20033;-78
2022/10/14 10:08:58;;;;;;;70.68;42.28;;;;;;;18.02;100.00;99909.31;5043974;28;20045;-77
2022/10/14 10:11:37;;;;;;;69.25;44.08;;;;;;;18.04;100.00;99912.63;5044341;28;20465;-77
2022/10/14 10:14:24;;;;;;;64.93;42.53;;;;;;;18.12;100.00;99909.88;5053968;28;20118;-77
2022/10/14 10:17:11;;;;;;;65.28;43.13;;;;;;;18.15;100.00;99904.16;5067660;28;20067;-79
2022/10/14 10:19:41;;;;;;;72.28;43.20;;;;;;;18.18;100.00;99904.63;5068511;28;20037;-79
2022/10/14 10:22:26;;;;;;;67.60;45.15;;;;;;;18.15;100.00;99905.00;5071056;28;20033;-78
2022/10/14 10:25:04;;;;;;;71.03;43.90;;;;;;;18.18;100.00;99904.63;5066460;28;20044;-77
2022/10/14 10:27:34;;;;;;;68.80;43.75;;;;;;;18.21;100.00;99900.75;5067863;28;20115;-79
2022/10/14 10:30:22;;;;;;;67.40;42.40;;;;;;;18.23;100.00;99902.25;5069814;28;20063;-81
2022/10/14 10:32:50;;;;;;;71.03;43.60;;;;;;;18.30;100.00;99897.00;5077442;28;20028;-79
2022/10/14 10:35:28;;;;;;;71.15;44.35;;;;;;;18.33;100.00;99891.28;5065890;28;20032;-79
2022/10/14 10:38:12;;;;;;;68.30;42.78;;;;;;;18.36;100.00;99886.41;5066918;28;20107;-78
2022/10/14 10:41:21;;;;;;;67.57;40.20;;;;;;;18.32;100.00;99879.75;5069313;28;20409;-77
2022/10/14 10:44:10;;;;;;;65.57;40.22;;;;;;;18.23;100.00;99886.22;5067562;28;20341;-77
2022/10/14 10:47:23;;;;;;;69.38;42.22;;;;;;;18.17;100.00;99880.78;5066493;28;20035;-79
2022/10/14 10:50:08;;;;;;;76.35;45.42;;;;;;;18.11;100.00;99882.34;5061481;28;20090;-80
2022/10/14 10:52:55;;;;;;;68.38;42.92;;;;;;;18.20;100.00;99881.22;5069448;28;20115;-77
2022/10/14 10:55:46;;;;;;;72.50;42.90;;;;;;;18.23;100.00;99875.53;5071354;28;20146;-77
2022/10/14 10:58:48;;;;;;;78.50;50.67;;;;;;;18.29;100.00;99874.78;5072121;28;20042;-76
2022/10/14 11:01:24;;;;;;;85.60;52.28;;;;;;;18.33;100.00;99865.38;5069199;28;20166;-77
2022/10/14 11:03:57;;;;;;;80.60;50.25;;;;;;;18.40;100.00;99860.97;5072376;28;20211;-76
2022/10/14 11:13:32;;;;;;;75.68;44.45;;;;;;;18.51;100.00;99850.81;5069827;28;20555;-77
2022/10/14 11:16:48;;;;;;;64.28;42.75;;;;;;;18.40;100.00;99860.97;5070020;28;20535;-78
2022/10/14 11:19:28;;;;;;;72.18;43.83;;;;;;;18.49;100.00;99859.03;5050556;28;20098;-78
2022/10/14 11:22:05;;;;;;;71.97;43.20;;;;;;;18.54;100.00;99859.31;5066591;28;20144;-77
2022/10/14 11:25:01;;;;;;;77.78;45.05;;;;;;;18.50;100.00;99862.50;5072762;28;20473;-78
2022/10/14 11:27:34;;;;;;;84.68;49.92;;;;;;;18.61;100.00;99854.91;5057286;28;20174;-79
2022/10/14 11:30:38;;;;;;;78.32;47.17;;;;;;;18.61;100.00;99856.75;5072547;28;20082;-79
2022/10/14 11:33:22;;;;;;;75.47;46.08;;;;;;;18.61;100.00;99854.06;5070991;28;20118;-79
2022/10/14 11:36:04;;;;;;;72.53;44.42;;;;;;;18.61;100.00;99854.06;5067603;28;20033;-79